createdAt,value
2018-06-21T00:03:37.611Z,56.15
2018-06-21T00:08:30.792Z,57.02
2018-06-21T00:13:23.832Z,56.52
2018-06-21T00:18:16.990Z,56.36
2018-06-21T00:23:10.058Z,57.30
2018-06-21T00:28:03.127Z,57.65
2018-06-21T00:32:56.071Z,57.01
2018-06-21T00:37:49.007Z,58.04
2018-06-21T00:42:42.076Z,57.65
2018-06-21T00:47:35.165Z,57.88
2018-06-21T00:52:28.171Z,57.91
2018-06-21T00:57:21.280Z,57.87
2018-06-21T01:02:14.342Z,58.10
2018-06-21T01:07:07.373Z,58.60
2018-06-21T01:12:00.479Z,58.82
2018-06-21T01:16:53.475Z,59.00
2018-06-21T01:21:46.457Z,58.53
2018-06-21T01:26:39.438Z,58.74
2018-06-21T01:31:32.398Z,59.11
2018-06-21T01:36:25.340Z,59.54
2018-06-21T01:41:18.613Z,59.11
2018-06-21T01:46:11.526Z,60.01
2018-06-21T01:51:04.529Z,59.55
2018-06-21T01:55:57.571Z,60.20
2018-06-21T02:00:50.621Z,59.71
2018-06-21T02:05:43.613Z,59.12
2018-06-21T02:10:36.614Z,59.11
2018-06-21T02:15:29.625Z,59.12
2018-06-21T02:20:22.717Z,59.14
2018-06-21T02:25:15.746Z,59.44
2018-06-21T02:30:08.813Z,59.36
2018-06-21T02:35:01.754Z,59.50
2018-06-21T02:39:54.890Z,59.29
2018-06-21T02:44:47.916Z,60.23
2018-06-21T02:49:40.821Z,60.28
2018-06-21T02:54:34.006Z,60.88
2018-06-21T02:59:27.004Z,60.89
2018-06-21T03:04:19.978Z,60.83
2018-06-21T03:09:13.033Z,60.86
2018-06-21T03:14:06.189Z,60.16
2018-06-21T03:18:59.310Z,59.96
2018-06-21T03:23:52.361Z,60.65
2018-06-21T03:28:45.429Z,60.95
2018-06-21T03:33:38.483Z,61.34
2018-06-21T03:38:31.457Z,60.83
2018-06-21T03:43:24.504Z,60.47
2018-06-21T03:48:17.501Z,61.17
2018-06-21T03:53:10.707Z,61.13
2018-06-21T03:58:03.697Z,61.37
2018-06-21T04:02:56.794Z,60.93
2018-06-21T04:07:49.841Z,61.05
2018-06-21T04:12:42.836Z,62.00
2018-06-21T04:17:35.786Z,61.73
2018-06-21T04:22:28.789Z,61.61
2018-06-21T04:27:21.761Z,61.63
2018-06-21T04:32:14.808Z,61.03
2018-06-21T04:37:07.778Z,61.54
2018-06-21T04:42:00.778Z,61.50
2018-06-21T04:46:54.172Z,62.20
2018-06-21T04:51:47.230Z,61.43
2018-06-21T04:56:40.154Z,61.99
2018-06-21T05:01:33.183Z,61.83
2018-06-21T05:06:28.111Z,61.66
2018-06-21T05:11:21.186Z,61.29
2018-06-21T05:16:14.262Z,61.56
2018-06-21T05:21:07.216Z,61.24
2018-06-21T05:26:00.192Z,60.17
2018-06-21T05:30:53.114Z,60.31
2018-06-21T05:35:46.158Z,60.16
2018-06-21T05:40:39.184Z,59.28
2018-06-21T05:45:32.584Z,59.41
2018-06-21T05:50:25.772Z,59.19
2018-06-21T05:55:18.837Z,59.06
2018-06-21T06:00:11.837Z,58.39
2018-06-21T06:05:04.956Z,58.13
2018-06-21T06:09:58.015Z,57.96
2018-06-21T06:14:51.103Z,57.22
2018-06-21T06:19:44.151Z,57.75
2018-06-21T06:24:37.278Z,57.53
2018-06-21T06:29:30.293Z,56.83
2018-06-21T06:34:23.223Z,55.93
2018-06-21T06:39:17.310Z,56.26
2018-06-21T06:44:10.560Z,56.14
2018-06-21T06:49:03.513Z,55.06
2018-06-21T06:53:56.399Z,54.24
2018-06-21T06:58:49.370Z,54.27
2018-06-21T07:03:42.307Z,53.85
2018-06-21T07:08:35.305Z,53.43
2018-06-21T07:13:28.405Z,51.48
2018-06-21T07:18:21.424Z,51.44
2018-06-21T07:23:14.499Z,50.08
2018-06-21T07:28:07.456Z,50.63
2018-06-21T07:33:00.538Z,50.45
2018-06-21T07:37:53.605Z,49.93
2018-06-21T07:42:46.657Z,51.00
2018-06-21T07:47:39.727Z,49.84
2018-06-21T07:52:32.735Z,47.61
2018-06-21T07:57:25.858Z,48.64
2018-06-21T08:02:18.806Z,49.22
2018-06-21T08:07:11.995Z,48.34
2018-06-21T08:12:05.112Z,49.32
2018-06-21T08:16:58.156Z,49.26
2018-06-21T08:21:51.783Z,50.38
2018-06-21T08:26:46.334Z,49.71
2018-06-21T08:31:39.412Z,49.96
2018-06-21T08:36:32.613Z,49.58
2018-06-21T08:41:26.913Z,50.01
2018-06-21T08:46:19.851Z,51.37
2018-06-21T08:51:12.842Z,50.57
2018-06-21T08:56:05.865Z,50.45
2018-06-21T09:00:58.895Z,48.87
2018-06-21T09:05:51.963Z,47.20
2018-06-21T09:10:45.266Z,44.93
2018-06-21T09:15:38.189Z,44.84
2018-06-21T09:20:31.164Z,44.53
2018-06-21T09:25:24.292Z,43.74
2018-06-21T09:30:17.346Z,43.60
2018-06-21T09:35:10.357Z,44.43
2018-06-21T09:40:08.991Z,43.00
2018-06-21T09:45:02.054Z,42.64
2018-06-21T09:49:55.022Z,40.55
2018-06-21T09:54:48.000Z,41.23
2018-06-21T09:59:40.961Z,40.36
2018-06-21T10:04:33.933Z,39.72
2018-06-21T10:09:26.870Z,41.45
2018-06-21T10:14:20.187Z,41.54
2018-06-21T10:19:13.088Z,40.08
2018-06-21T10:24:06.110Z,40.95
2018-06-21T10:28:59.224Z,42.44
2018-06-21T10:33:52.189Z,41.80
2018-06-21T10:38:45.197Z,43.30
2018-06-21T10:43:38.224Z,46.04
2018-06-21T10:48:31.289Z,47.42
2018-06-21T10:53:24.434Z,46.67
2018-06-21T10:58:17.600Z,47.20
2018-06-21T11:03:10.728Z,47.83
2018-06-21T11:08:03.698Z,47.81
2018-06-21T11:12:56.788Z,47.98
2018-06-21T11:17:50.024Z,47.66
2018-06-21T11:22:42.936Z,48.77
2018-06-21T11:27:35.871Z,49.09
2018-06-21T11:32:28.844Z,49.23
2018-06-21T11:37:21.911Z,48.88
2018-06-21T11:42:14.830Z,49.90
2018-06-21T11:47:07.809Z,49.67
2018-06-21T11:52:00.698Z,49.23
2018-06-21T11:56:53.715Z,48.84
2018-06-21T12:01:46.824Z,49.28
2018-06-21T12:06:39.815Z,49.03
2018-06-21T12:11:32.738Z,50.09
2018-06-21T12:16:25.689Z,50.56
2018-06-21T12:21:18.682Z,51.69
2018-06-21T12:26:11.667Z,52.83
2018-06-21T12:31:04.638Z,54.03
2018-06-21T12:35:57.694Z,54.17
2018-06-21T12:40:50.716Z,54.20
2018-06-21T12:45:43.774Z,55.10
2018-06-21T12:50:36.731Z,54.81
2018-06-21T12:55:29.750Z,55.00
2018-06-21T13:00:22.712Z,55.58
2018-06-21T13:05:15.620Z,56.45
2018-06-21T13:10:26.465Z,57.98
2018-06-21T13:15:19.403Z,57.93
2018-06-21T13:20:12.361Z,58.04
2018-06-21T13:25:05.588Z,58.20
2018-06-21T13:29:58.551Z,58.60
2018-06-21T13:34:51.775Z,57.82
2018-06-21T13:39:44.762Z,59.34
2018-06-21T13:44:37.726Z,58.24
2018-06-21T13:49:30.683Z,58.55
2018-06-21T13:54:23.705Z,59.80
2018-06-21T13:59:17.685Z,58.31
2018-06-21T14:04:10.674Z,57.32
2018-06-21T14:09:05.946Z,55.65
2018-06-21T14:13:58.974Z,53.66
2018-06-21T14:18:51.989Z,51.96
2018-06-21T14:23:44.914Z,50.91
2018-06-21T14:28:37.919Z,50.34
2018-06-21T14:33:30.988Z,49.07
2018-06-21T14:38:23.923Z,49.31
2018-06-21T14:43:17.015Z,48.95
2018-06-21T14:48:10.016Z,48.53
2018-06-21T14:53:03.073Z,46.85
2018-06-21T14:57:56.151Z,46.81
2018-06-21T15:02:49.225Z,45.21
2018-06-21T15:07:42.135Z,44.91
2018-06-21T15:12:35.485Z,44.19
2018-06-21T15:17:28.545Z,44.31
2018-06-21T15:22:21.580Z,43.34
2018-06-21T15:27:14.611Z,44.18
2018-06-21T15:32:07.716Z,43.10
2018-06-21T15:37:00.771Z,43.06
2018-06-21T15:41:53.747Z,43.00
2018-06-21T15:46:46.797Z,42.58
2018-06-21T15:51:39.844Z,42.39
2018-06-21T15:56:32.876Z,42.33
2018-06-21T16:01:25.905Z,41.64
2018-06-21T16:06:19.038Z,41.08
2018-06-21T16:11:12.139Z,39.99
2018-06-21T16:16:05.334Z,39.56
2018-06-21T16:20:58.289Z,39.10
2018-06-21T16:25:51.259Z,39.02
2018-06-21T16:30:44.268Z,38.27
2018-06-21T16:35:37.243Z,37.89
2018-06-21T16:40:30.689Z,38.14
2018-06-21T16:45:23.677Z,37.77
2018-06-21T16:50:16.663Z,38.05
2018-06-21T16:55:09.685Z,38.47
2018-06-21T17:00:02.724Z,38.28
2018-06-21T17:04:55.740Z,37.19
2018-06-21T17:09:48.751Z,36.89
2018-06-21T17:14:41.780Z,37.44
2018-06-21T17:19:34.768Z,36.85
2018-06-21T17:24:27.825Z,36.72
2018-06-21T17:29:20.839Z,36.89
2018-06-21T17:34:13.849Z,37.35
2018-06-21T17:39:08.483Z,37.53
2018-06-21T17:44:01.489Z,38.28
2018-06-21T17:48:54.431Z,39.24
2018-06-21T17:53:47.452Z,40.14
2018-06-21T17:58:40.405Z,39.35
2018-06-21T18:03:33.343Z,40.64
2018-06-21T18:08:26.522Z,39.74
2018-06-21T18:13:19.537Z,39.73
2018-06-21T18:18:12.531Z,40.36
2018-06-21T18:23:05.556Z,40.31
2018-06-21T18:28:00.726Z,40.97
2018-06-21T18:32:53.861Z,40.69
2018-06-21T18:37:46.921Z,41.00
2018-06-21T18:42:39.873Z,41.91
2018-06-21T18:47:32.890Z,41.65
2018-06-21T18:52:25.964Z,42.66
2018-06-21T18:57:19.043Z,42.25
2018-06-21T19:02:11.946Z,42.43
2018-06-21T19:07:10.671Z,42.61
2018-06-21T19:12:05.186Z,42.88
2018-06-21T19:16:58.284Z,42.68
2018-06-21T19:21:51.232Z,43.12
2018-06-21T19:26:44.223Z,43.48
2018-06-21T19:31:37.208Z,43.24
2018-06-21T19:36:30.333Z,44.07
2018-06-21T19:41:23.373Z,44.64
2018-06-21T19:46:16.357Z,44.73
2018-06-21T19:51:09.430Z,45.83
2018-06-21T19:56:02.287Z,45.79
2018-06-21T20:00:55.316Z,46.05
2018-06-21T20:05:48.283Z,46.45
2018-06-21T20:10:41.239Z,46.09
2018-06-21T20:15:47.291Z,46.78
2018-06-21T20:20:40.411Z,46.79
2018-06-21T20:25:33.371Z,47.73
2018-06-21T20:30:26.387Z,47.73
2018-06-21T20:35:19.461Z,47.49
2018-06-21T20:40:12.449Z,47.49
2018-06-21T20:45:05.451Z,47.20
2018-06-21T20:49:58.399Z,48.13
2018-06-21T20:54:51.559Z,48.26
2018-06-21T20:59:44.509Z,48.72
2018-06-21T21:05:19.204Z,48.39
2018-06-21T21:10:13.421Z,48.58
2018-06-21T21:15:07.657Z,49.78
2018-06-21T21:20:00.788Z,50.03
2018-06-21T21:24:53.901Z,49.81
2018-06-21T21:29:46.944Z,50.67
2018-06-21T21:34:39.971Z,50.70
2018-06-21T21:39:32.984Z,50.43
2018-06-21T21:44:26.194Z,50.92
2018-06-21T21:49:19.238Z,51.20
2018-06-21T21:54:12.171Z,52.28
2018-06-21T21:59:05.130Z,52.23
2018-06-21T22:03:58.173Z,52.05
2018-06-21T22:08:51.127Z,52.78
2018-06-21T22:13:46.179Z,53.61
2018-06-21T22:18:39.164Z,53.39
2018-06-21T22:23:32.117Z,54.04
2018-06-21T22:28:25.112Z,54.99
2018-06-21T22:38:43.406Z,56.44
2018-06-21T22:43:36.425Z,57.04
2018-06-21T22:48:29.486Z,57.07
2018-06-21T22:53:22.555Z,57.51
2018-06-21T22:58:15.631Z,57.52
2018-06-21T23:03:08.631Z,57.79
2018-06-21T23:08:01.678Z,57.18
2018-06-21T23:12:54.705Z,57.30
2018-06-21T23:17:47.633Z,57.79
2018-06-21T23:22:40.629Z,56.58
2018-06-21T23:27:33.588Z,56.79
2018-06-21T23:32:26.460Z,57.50
2018-06-21T23:37:19.436Z,56.77
2018-06-21T23:42:12.409Z,57.24
2018-06-21T23:47:05.469Z,57.53
2018-06-21T23:51:58.420Z,58.11
2018-06-21T23:56:51.384Z,58.53
